Time,TemperatureF,DewpointF,PressureIn,WindDirection,WindDirectionDegrees,WindSpeedMPH,WindSpeedGustMPH,Humidity,HourlyPrecipIn,Conditions,Clouds,dailyrainin,SoftwareType,DateUTC
2013-03-10 00:04:00,34.8,32.5,29.69,North,360,16.0,29.0,91,0.00,,SKC,0.00,VWS V14.01,2013-03-10 06:04:00,
2013-03-10 00:08:00,34.8,32.5,29.68,NNW,343,19.0,29.0,91,0.00,,SKC,0.00,VWS V14.01,2013-03-10 06:08:00,
2013-03-10 00:16:00,34.7,32.3,29.69,NNW,348,20.0,29.0,91,0.00,,SKC,0.00,VWS V14.01,2013-03-10 06:16:00,
2013-03-10 00:20:00,34.6,32.2,29.69,North,360,23.0,29.0,91,0.01,,SKC,0.01,VWS V14.01,2013-03-10 06:20:00,
2013-03-10 00:24:00,34.3,32.0,29.69,North,360,17.0,29.0,91,0.03,,SKC,0.03,VWS V14.01,2013-03-10 06:24:00,
2013-03-10 00:28:00,34.1,32.0,29.69,NNW,348,15.0,29.0,92,0.03,,SKC,0.03,VWS V14.01,2013-03-10 06:28:00,
2013-03-10 00:29:00,34.1,32.0,29.69,North,5,21.0,29.0,92,0.03,,SKC,0.03,VWS V14.01,2013-03-10 06:29:00,
2013-03-10 00:32:00,34.1,32.0,29.69,North,5,15.0,23.0,92,0.03,,SKC,0.03,VWS V14.01,2013-03-10 06:32:00,
2013-03-10 00:36:00,34.1,32.0,29.70,NNW,340,10.0,23.0,92,0.03,,SKC,0.03,VWS V14.01,2013-03-10 06:36:00,
2013-03-10 00:40:00,34.0,31.9,29.72,North,360,16.0,24.0,92,0.03,,SKC,0.03,VWS V14.01,2013-03-10 06:40:00,
2013-03-10 00:44:00,34.0,31.9,29.70,North,5,18.0,24.0,92,0.04,,SKC,0.04,VWS V14.01,2013-03-10 06:44:00,
2013-03-10 00:48:00,33.9,31.8,29.69,North,360,18.0,27.0,92,0.04,,SKC,0.04,VWS V14.01,2013-03-10 06:48:00,
2013-03-10 00:52:00,33.8,32.0,29.69,North,5,19.0,27.0,93,0.04,,SKC,0.04,VWS V14.01,2013-03-10 06:52:00,
2013-03-10 00:56:00,33.8,32.0,29.70,North,360,18.0,27.0,93,0.04,,SKC,0.04,VWS V14.01,2013-03-10 06:56:00,
2013-03-10 01:00:00,33.8,32.0,29.73,NNE,19,10.0,11.0,93,0.04,,SKC,0.04,VWS V14.01,2013-03-10 07:00:00,
2013-03-10 01:04:00,33.9,32.1,29.73,NE,50,8.0,22.0,93,0.04,,SKC,0.04,VWS V14.01,2013-03-10 07:04:00,
2013-03-10 01:12:00,33.6,31.5,29.72,NNW,344,19.0,28.0,92,0.05,,SKC,0.05,VWS V14.01,2013-03-10 07:12:00,
2013-03-10 01:16:00,33.4,31.3,29.73,North,5,14.0,29.0,92,0.05,,SKC,0.05,VWS V14.01,2013-03-10 07:16:00,
2013-03-10 01:20:00,33.2,31.1,29.73,NW,305,18.0,29.0,92,0.05,,SKC,0.05,VWS V14.01,2013-03-10 07:20:00,
2013-03-10 01:24:00,33.0,31.2,29.73,North,360,17.0,29.0,93,0.05,,SKC,0.05,VWS V14.01,2013-03-10 07:24:00,
2013-03-10 01:28:00,32.9,31.1,29.72,North,360,23.0,29.0,93,0.05,,SKC,0.05,VWS V14.01,2013-03-10 07:28:00,
2013-03-10 01:29:00,32.9,31.1,29.72,North,355,21.0,29.0,93,0.05,,SKC,0.05,VWS V14.01,2013-03-10 07:29:00,
2013-03-10 01:32:00,32.8,31.0,29.72,NNW,346,18.0,24.0,93,0.02,,SKC,0.05,VWS V14.01,2013-03-10 07:32:00,
2013-03-10 01:36:00,32.7,30.9,29.72,NNW,344,11.0,24.0,93,0.02,,SKC,0.05,VWS V14.01,2013-03-10 07:36:00,
2013-03-10 01:44:00,32.8,31.3,29.73,WNW,300,16.0,24.0,94,0.02,,SKC,0.05,VWS V14.01,2013-03-10 07:44:00,
2013-03-10 01:52:00,32.7,31.2,29.71,North,355,14.0,24.0,94,0.02,,SKC,0.05,VWS V14.01,2013-03-10 07:52:00,
2013-03-10 01:56:00,32.6,31.1,29.72,North,5,20.0,25.0,94,0.02,,SKC,0.05,VWS V14.01,2013-03-10 07:56:00,
2013-03-10 01:59:00,32.6,31.1,29.72,North,355,23.0,25.0,94,0.05,,SKC,0.05,VWS V14.01,2013-03-10 07:59:00,
2013-03-10 03:04:00,32.5,31.0,29.73,North,360,16.0,24.0,94,0.01,,SKC,0.05,VWS V14.01,2013-03-10 08:04:00,
2013-03-10 03:08:00,32.5,31.0,29.72,North,350,22.0,26.0,94,0.01,,SKC,0.05,VWS V14.01,2013-03-10 08:08:00,
2013-03-10 03:16:00,32.6,31.1,29.73,ENE,58,21.0,28.0,94,0.01,,SKC,0.05,VWS V14.01,2013-03-10 08:16:00,
2013-03-10 03:20:00,32.5,31.0,29.73,North,360,14.0,28.0,94,0.01,,SKC,0.05,VWS V14.01,2013-03-10 08:20:00,
2013-03-10 03:24:00,32.4,30.9,29.72,North,360,20.0,28.0,94,0.01,,SKC,0.05,VWS V14.01,2013-03-10 08:24:00,
2013-03-10 03:28:00,32.3,30.8,29.70,North,355,22.0,28.0,94,0.01,,SKC,0.05,VWS V14.01,2013-03-10 08:28:00,
2013-03-10 03:29:00,32.3,30.8,29.71,North,360,18.0,28.0,94,0.02,,SKC,0.06,VWS V14.01,2013-03-10 08:29:00,
2013-03-10 03:36:00,32.3,30.8,29.72,North,5,27.0,27.0,94,0.01,,SKC,0.06,VWS V14.01,2013-03-10 08:36:00,
2013-03-10 03:40:00,32.2,30.7,29.72,North,355,12.0,27.0,94,0.01,,SKC,0.06,VWS V14.01,2013-03-10 08:40:00,
2013-03-10 03:44:00,32.2,30.7,29.72,North,360,13.0,27.0,94,0.01,,SKC,0.06,VWS V14.01,2013-03-10 08:44:00,
2013-03-10 03:48:00,32.1,30.6,29.71,NNW,341,16.0,27.0,94,0.01,,SKC,0.06,VWS V14.01,2013-03-10 08:48:00,
2013-03-10 03:52:00,32.1,30.6,29.73,NNE,12,13.0,27.0,94,0.01,,SKC,0.06,VWS V14.01,2013-03-10 08:52:00,
2013-03-10 03:59:00,32.1,30.6,29.73,North,355,19.0,27.0,94,0.01,,SKC,0.06,VWS V14.01,2013-03-10 08:59:00,
2013-03-10 04:00:00,32.1,30.6,29.73,North,11,20.0,27.0,94,0.01,,SKC,0.06,VWS V14.01,2013-03-10 09:00:00,
2013-03-10 04:08:00,32.1,30.6,29.72,NNW,327,12.0,28.0,94,0.01,,SKC,0.06,VWS V14.01,2013-03-10 09:08:00,
2013-03-10 04:12:00,32.1,30.6,29.73,North,355,19.0,28.0,94,0.01,,SKC,0.06,VWS V14.01,2013-03-10 09:12:00,
2013-03-10 04:20:00,32.0,30.5,29.73,NNW,346,18.0,28.0,94,0.01,,SKC,0.06,VWS V14.01,2013-03-10 09:20:00,
2013-03-10 04:24:00,32.0,30.5,29.73,North,5,17.0,29.0,94,0.01,,SKC,0.06,VWS V14.01,2013-03-10 09:24:00,
2013-03-10 04:28:00,32.0,30.5,29.72,NNW,334,24.0,29.0,94,0.01,,SKC,0.06,VWS V14.01,2013-03-10 09:28:00,
2013-03-10 04:32:00,31.9,30.4,29.72,North,360,21.0,27.0,94,0.00,,SKC,0.06,VWS V14.01,2013-03-10 09:32:00,
2013-03-10 04:40:00,31.9,30.4,29.73,North,355,24.0,28.0,94,0.00,,SKC,0.06,VWS V14.01,2013-03-10 09:40:00,
2013-03-10 04:44:00,31.9,30.4,29.74,NNW,348,16.0,30.0,94,0.00,,SKC,0.06,VWS V14.01,2013-03-10 09:44:00,
2013-03-10 04:48:00,31.9,30.4,29.74,NNW,346,16.0,30.0,94,0.00,,SKC,0.06,VWS V14.01,2013-03-10 09:48:00,
2013-03-10 04:52:00,31.9,30.4,29.73,NNW,346,18.0,30.0,94,0.00,,SKC,0.06,VWS V14.01,2013-03-10 09:52:00,
2013-03-10 04:56:00,31.9,30.4,29.73,North,5,24.0,30.0,94,0.00,,SKC,0.06,VWS V14.01,2013-03-10 09:56:00,
2013-03-10 05:04:00,31.9,30.4,29.73,North,355,20.0,34.0,94,0.00,,SKC,0.06,VWS V14.01,2013-03-10 10:04:00,
2013-03-10 05:08:00,31.9,30.1,29.72,NNW,342,19.0,34.0,93,0.00,,SKC,0.06,VWS V14.01,2013-03-10 10:08:00,
2013-03-10 05:12:00,31.9,30.1,29.70,North,5,18.0,36.0,93,0.01,,SKC,0.07,VWS V14.01,2013-03-10 10:12:00,
2013-03-10 05:16:00,31.8,30.0,29.69,North,355,23.0,36.0,93,0.01,,SKC,0.07,VWS V14.01,2013-03-10 10:16:00,
2013-03-10 05:20:00,31.8,30.0,29.72,North,355,26.0,36.0,93,0.01,,SKC,0.07,VWS V14.01,2013-03-10 10:20:00,
2013-03-10 05:24:00,31.8,30.0,29.74,North,5,18.0,36.0,93,0.01,,SKC,0.07,VWS V14.01,2013-03-10 10:24:00,
2013-03-10 05:29:00,31.8,30.0,29.74,North,355,20.0,36.0,93,0.01,,SKC,0.07,VWS V14.01,2013-03-10 10:29:00,
2013-03-10 05:32:00,31.8,30.0,29.74,North,355,14.0,26.0,93,0.01,,SKC,0.07,VWS V14.01,2013-03-10 10:32:00,
2013-03-10 05:40:00,31.7,29.9,29.75,North,360,23.0,26.0,93,0.01,,SKC,0.07,VWS V14.01,2013-03-10 10:40:00,
2013-03-10 05:44:00,31.6,29.8,29.76,NE,37,20.0,26.0,93,0.01,,SKC,0.07,VWS V14.01,2013-03-10 10:44:00,
2013-03-10 05:48:00,31.6,29.8,29.75,North,360,19.0,28.0,93,0.01,,SKC,0.07,VWS V14.01,2013-03-10 10:48:00,
2013-03-10 05:52:00,31.5,29.7,29.75,North,5,19.0,32.0,93,0.01,,SKC,0.07,VWS V14.01,2013-03-10 10:52:00,
2013-03-10 05:59:00,31.5,29.7,29.75,NNW,337,23.0,32.0,93,0.01,,SKC,0.07,VWS V14.01,2013-03-10 10:59:00,
2013-03-10 06:00:00,31.5,29.7,29.76,North,360,22.0,23.0,93,0.01,,SKC,0.07,VWS V14.01,2013-03-10 11:00:00,
2013-03-10 06:04:00,31.5,29.7,29.78,North,355,16.0,27.0,93,0.01,,SKC,0.07,VWS V14.01,2013-03-10 11:04:00,
2013-03-10 06:08:00,31.5,29.7,29.80,NNW,339,18.0,27.0,93,0.01,,SKC,0.07,VWS V14.01,2013-03-10 11:08:00,
2013-03-10 06:16:00,31.4,29.6,29.82,NNW,333,6.0,27.0,93,0.01,,SKC,0.07,VWS V14.01,2013-03-10 11:16:00,
2013-03-10 06:20:00,31.4,29.6,29.80,NNW,330,17.0,27.0,93,0.01,,SKC,0.07,VWS V14.01,2013-03-10 11:20:00,
2013-03-10 06:24:00,31.2,29.4,29.80,NW,306,20.0,27.0,93,0.01,,SKC,0.07,VWS V14.01,2013-03-10 11:24:00,
2013-03-10 06:28:00,31.2,29.7,29.80,NE,35,6.0,27.0,94,0.01,,SKC,0.07,VWS V14.01,2013-03-10 11:28:00,
2013-03-10 06:32:00,31.1,29.6,29.79,NW,305,18.0,26.0,94,0.00,,SKC,0.07,VWS V14.01,2013-03-10 11:32:00,
2013-03-10 06:36:00,31.1,29.6,29.79,North,355,15.0,27.0,94,0.00,,SKC,0.07,VWS V14.01,2013-03-10 11:36:00,
2013-03-10 06:44:00,31.0,29.5,29.76,NNW,342,17.0,32.0,94,0.00,,SKC,0.07,VWS V14.01,2013-03-10 11:44:00,
2013-03-10 06:48:00,31.0,29.5,29.76,North,9,22.0,33.0,94,0.00,,SKC,0.07,VWS V14.01,2013-03-10 11:48:00,
2013-03-10 06:52:00,31.0,29.5,29.77,NNW,329,16.0,33.0,94,0.00,,SKC,0.07,VWS V14.01,2013-03-10 11:52:00,
2013-03-10 06:59:00,31.0,29.5,29.77,North,351,27.0,34.0,94,0.00,,SKC,0.07,VWS V14.01,2013-03-10 11:59:00,
2013-03-10 07:00:00,31.0,29.5,29.76,NNW,337,20.0,27.0,94,0.00,,SKC,0.07,VWS V14.01,2013-03-10 12:00:00,
2013-03-10 07:04:00,31.0,29.5,29.78,North,355,15.0,33.0,94,0.00,,SKC,0.07,VWS V14.01,2013-03-10 12:04:00,
2013-03-10 07:08:00,31.0,29.5,29.78,North,355,25.0,34.0,94,0.00,,SKC,0.07,VWS V14.01,2013-03-10 12:08:00,
2013-03-10 07:13:00,31.0,29.2,29.77,NNE,19,30.0,37.0,93,0.00,,SKC,0.07,VWS V14.01,2013-03-10 12:13:00,
2013-03-10 07:17:00,30.8,29.0,29.77,North,9,30.0,37.0,93,0.00,,SKC,0.07,VWS V14.01,2013-03-10 12:17:00,
2013-03-10 07:21:00,30.7,28.9,29.76,NNW,342,29.0,40.0,93,0.00,,SKC,0.07,VWS V14.01,2013-03-10 12:21:00,
2013-03-10 07:29:00,30.8,28.8,29.76,North,5,30.0,40.0,92,0.00,,SKC,0.07,VWS V14.01,2013-03-10 12:29:00,
2013-03-10 07:33:00,30.8,28.8,29.75,North,360,28.0,33.0,92,0.00,,SKC,0.07,VWS V14.01,2013-03-10 12:33:00,
2013-03-10 07:41:00,30.8,28.8,29.77,NNW,327,23.0,41.0,92,0.00,,SKC,0.07,VWS V14.01,2013-03-10 12:41:00,
2013-03-10 07:45:00,30.8,28.5,29.78,North,5,21.0,41.0,91,0.00,,SKC,0.07,VWS V14.01,2013-03-10 12:45:00,
2013-03-10 07:53:00,30.8,28.5,29.80,North,360,24.0,41.0,91,0.00,,SKC,0.07,VWS V14.01,2013-03-10 12:53:00,
2013-03-10 07:59:00,30.9,28.3,29.82,NNW,342,24.0,41.0,90,0.00,,SKC,0.07,VWS V14.01,2013-03-10 12:59:00,
2013-03-10 08:01:00,30.9,28.0,29.82,North,350,23.0,29.0,89,0.00,,SKC,0.07,VWS V14.01,2013-03-10 13:01:00,
2013-03-10 08:09:00,30.8,28.2,29.82,NNE,17,19.0,33.0,90,0.00,,SKC,0.07,VWS V14.01,2013-03-10 13:09:00,
2013-03-10 08:17:00,30.5,27.9,29.82,WNW,303,19.0,33.0,90,0.00,,SKC,0.07,VWS V14.01,2013-03-10 13:17:00,
2013-03-10 08:21:00,30.5,27.9,29.82,North,351,11.0,33.0,90,0.00,,SKC,0.07,VWS V14.01,2013-03-10 13:21:00,
2013-03-10 08:25:00,30.2,27.6,29.83,NNW,345,14.0,33.0,90,0.00,,SKC,0.07,VWS V14.01,2013-03-10 13:25:00,
2013-03-10 08:29:00,29.2,26.6,29.84,NNE,27,15.0,33.0,90,0.00,,SKC,0.07,VWS V14.01,2013-03-10 13:29:00,
2013-03-10 08:33:00,28.6,26.0,29.83,NNW,333,15.0,24.0,90,0.00,,SKC,0.07,VWS V14.01,2013-03-10 13:33:00,
2013-03-10 08:37:00,28.3,26.0,29.83,WNW,284,16.0,25.0,91,0.00,,SKC,0.07,VWS V14.01,2013-03-10 13:37:00,
2013-03-10 08:45:00,28.1,25.8,29.82,North,11,16.0,28.0,91,0.00,,SKC,0.07,VWS V14.01,2013-03-10 13:45:00,
2013-03-10 08:49:00,28.1,25.8,29.83,North,5,14.0,28.0,91,0.00,,SKC,0.07,VWS V14.01,2013-03-10 13:49:00,
2013-03-10 08:53:00,28.1,25.8,29.85,NNE,19,12.0,28.0,91,0.00,,SKC,0.07,VWS V14.01,2013-03-10 13:53:00,
2013-03-10 08:59:00,28.0,25.7,29.85,NW,317,9.0,28.0,91,0.00,,SKC,0.07,VWS V14.01,2013-03-10 13:59:00,
2013-03-10 09:01:00,28.0,25.7,29.84,NW,318,11.0,16.0,91,0.00,,SKC,0.07,VWS V14.01,2013-03-10 14:01:00,
2013-03-10 09:09:00,27.9,25.6,29.83,NW,323,19.0,23.0,91,0.00,,SKC,0.07,VWS V14.01,2013-03-10 14:09:00,
2013-03-10 09:13:00,27.9,25.6,29.83,WNW,295,16.0,23.0,91,0.00,,SKC,0.07,VWS V14.01,2013-03-10 14:13:00,
2013-03-10 09:17:00,27.9,25.6,29.83,NNW,334,11.0,23.0,91,0.00,,SKC,0.07,VWS V14.01,2013-03-10 14:17:00,
2013-03-10 09:21:00,27.9,25.9,29.83,North,349,8.0,23.0,92,0.00,,SKC,0.07,VWS V14.01,2013-03-10 14:21:00,
2013-03-10 09:25:00,27.9,25.9,29.83,NNW,339,15.0,24.0,92,0.00,,SKC,0.07,VWS V14.01,2013-03-10 14:25:00,
2013-03-10 09:29:00,27.9,25.9,29.82,WNW,293,10.0,24.0,92,0.00,,SKC,0.07,VWS V14.01,2013-03-10 14:29:00,
2013-03-10 09:33:00,27.9,25.9,29.82,NNW,329,14.0,27.0,92,0.00,,SKC,0.07,VWS V14.01,2013-03-10 14:33:00,
2013-03-10 09:37:00,27.9,26.1,29.82,North,5,15.0,27.0,93,0.00,,SKC,0.07,VWS V14.01,2013-03-10 14:37:00,
2013-03-10 09:41:00,28.0,26.2,29.82,North,355,16.0,27.0,93,0.00,,SKC,0.07,VWS V14.01,2013-03-10 14:41:00,
2013-03-10 09:45:00,28.1,26.3,29.83,NNW,333,14.0,27.0,93,0.00,,SKC,0.07,VWS V14.01,2013-03-10 14:45:00,
2013-03-10 09:49:00,28.2,26.4,29.83,NNW,347,20.0,27.0,93,0.00,,SKC,0.07,VWS V14.01,2013-03-10 14:49:00,
2013-03-10 09:57:00,28.3,26.8,29.83,NNW,339,11.0,27.0,94,0.00,,SKC,0.07,VWS V14.01,2013-03-10 14:57:00,
2013-03-10 09:59:00,28.1,26.6,29.83,NNW,337,11.0,27.0,94,0.00,,SKC,0.07,VWS V14.01,2013-03-10 14:59:00,
2013-03-10 10:05:00,27.9,26.4,29.85,North,5,19.0,19.0,94,0.00,,SKC,0.07,VWS V14.01,2013-03-10 15:05:00,
2013-03-10 10:09:00,28.2,26.7,29.84,North,9,17.0,28.0,94,0.00,,SKC,0.07,VWS V14.01,2013-03-10 15:09:00,
2013-03-10 10:13:00,28.2,26.7,29.85,NW,305,12.0,28.0,94,0.00,,SKC,0.07,VWS V14.01,2013-03-10 15:13:00,
2013-03-10 10:21:00,27.9,26.4,29.86,NW,323,14.0,28.0,94,0.00,,SKC,0.07,VWS V14.01,2013-03-10 15:21:00,
2013-03-10 10:29:00,27.9,26.4,29.85,NW,317,14.0,28.0,94,0.00,,SKC,0.07,VWS V14.01,2013-03-10 15:29:00,
2013-03-10 10:37:00,27.9,26.4,29.86,NW,326,15.0,24.0,94,0.00,,SKC,0.07,VWS V14.01,2013-03-10 15:37:00,
2013-03-10 10:41:00,27.4,25.9,29.86,North,350,10.0,24.0,94,0.00,,SKC,0.07,VWS V14.01,2013-03-10 15:41:00,
2013-03-10 10:45:00,27.2,25.7,29.86,North,350,12.0,24.0,94,0.00,,SKC,0.07,VWS V14.01,2013-03-10 15:45:00,
2013-03-10 10:53:00,27.0,25.5,29.88,NW,326,13.0,24.0,94,0.00,,SKC,0.07,VWS V14.01,2013-03-10 15:53:00,
2013-03-10 10:59:00,27.0,25.5,29.87,NW,309,14.0,24.0,94,0.00,,SKC,0.07,VWS V14.01,2013-03-10 15:59:00,
2013-03-10 11:01:00,26.9,25.4,29.87,North,355,15.0,22.0,94,0.00,,SKC,0.07,VWS V14.01,2013-03-10 16:01:00,
2013-03-10 11:09:00,26.7,25.2,29.87,NNW,339,11.0,24.0,94,0.00,,SKC,0.07,VWS V14.01,2013-03-10 16:09:00,
2013-03-10 11:13:00,26.7,25.2,29.87,NNE,12,11.0,24.0,94,0.00,,SKC,0.07,VWS V14.01,2013-03-10 16:13:00,
2013-03-10 11:17:00,26.7,25.2,29.87,NNW,336,15.0,26.0,94,0.00,,SKC,0.07,VWS V14.01,2013-03-10 16:17:00,
2013-03-10 11:25:00,26.7,25.2,29.87,NW,315,12.0,26.0,94,0.00,,SKC,0.07,VWS V14.01,2013-03-10 16:25:00,
2013-03-10 11:29:00,26.6,25.1,29.87,NNW,329,11.0,26.0,94,0.00,,SKC,0.07,VWS V14.01,2013-03-10 16:29:00,
2013-03-10 11:33:00,26.5,25.0,29.87,NNW,328,12.0,28.0,94,0.00,,SKC,0.07,VWS V14.01,2013-03-10 16:33:00,
2013-03-10 11:37:00,26.4,24.9,29.87,North,350,10.0,28.0,94,0.00,,SKC,0.07,VWS V14.01,2013-03-10 16:37:00,
2013-03-10 11:41:00,26.1,24.6,29.88,NNW,340,11.0,28.0,94,0.00,,SKC,0.07,VWS V14.01,2013-03-10 16:41:00,
2013-03-10 11:45:00,26.1,24.6,29.88,NNE,17,14.0,28.0,94,0.00,,SKC,0.07,VWS V14.01,2013-03-10 16:45:00,
2013-03-10 11:53:00,25.8,24.3,29.88,NNW,340,12.0,28.0,94,0.00,,SKC,0.07,VWS V14.01,2013-03-10 16:53:00,
2013-03-10 11:57:00,25.6,24.1,29.89,NE,38,10.0,28.0,94,0.00,,SKC,0.07,VWS V14.01,2013-03-10 16:57:00,
2013-03-10 11:59:00,25.5,24.0,29.88,NW,316,18.0,28.0,94,0.00,,SKC,0.07,VWS V14.01,2013-03-10 16:59:00,
2013-03-10 12:05:00,25.3,23.6,29.88,NNW,329,27.0,27.0,93,0.00,,SKC,0.07,VWS V14.01,2013-03-10 17:05:00,
2013-03-10 12:13:00,25.3,23.6,29.88,NW,318,14.0,27.0,93,0.00,,SKC,0.07,VWS V14.01,2013-03-10 17:13:00,
2013-03-10 12:21:00,25.4,23.7,29.88,NNW,337,10.0,27.0,93,0.00,,SKC,0.07,VWS V14.01,2013-03-10 17:21:00,
2013-03-10 12:25:00,25.4,23.9,29.88,North,9,12.0,27.0,94,0.00,,SKC,0.07,VWS V14.01,2013-03-10 17:25:00,
2013-03-10 12:29:00,25.5,24.0,29.88,NW,319,14.0,27.0,94,0.00,,SKC,0.07,VWS V14.01,2013-03-10 17:29:00,
2013-03-10 12:37:00,25.6,24.1,29.88,NW,313,11.0,26.0,94,0.00,,SKC,0.07,VWS V14.01,2013-03-10 17:37:00,
2013-03-10 12:41:00,25.8,24.1,29.88,ENE,62,11.0,27.0,93,0.00,,SKC,0.07,VWS V14.01,2013-03-10 17:41:00,
2013-03-10 12:49:00,25.8,24.1,29.88,NNW,331,18.0,27.0,93,0.00,,SKC,0.07,VWS V14.01,2013-03-10 17:49:00,
2013-03-10 12:53:00,26.0,24.3,29.89,NNW,346,14.0,27.0,93,0.00,,SKC,0.07,VWS V14.01,2013-03-10 17:53:00,
2013-03-10 12:57:00,26.0,24.3,29.88,North,360,10.0,27.0,93,0.00,,SKC,0.07,VWS V14.01,2013-03-10 17:57:00,
2013-03-10 12:59:00,26.1,24.4,29.88,NW,323,19.0,27.0,93,0.00,,SKC,0.07,VWS V14.01,2013-03-10 17:59:00,
2013-03-10 13:01:00,26.2,24.5,29.88,NNW,348,14.0,22.0,93,0.00,,SKC,0.07,VWS V14.01,2013-03-10 18:01:00,
2013-03-10 13:09:00,26.5,24.8,29.89,North,355,11.0,23.0,93,0.00,,SKC,0.07,VWS V14.01,2013-03-10 18:09:00,
2013-03-10 13:13:00,26.6,24.9,29.88,NE,47,13.0,26.0,93,0.00,,SKC,0.07,VWS V14.01,2013-03-10 18:13:00,
2013-03-10 13:17:00,26.7,25.0,29.88,WNW,290,13.0,26.0,93,0.00,,SKC,0.07,VWS V14.01,2013-03-10 18:17:00,
2013-03-10 13:25:00,26.7,25.0,29.89,NNW,331,12.0,27.0,93,0.00,,SKC,0.07,VWS V14.01,2013-03-10 18:25:00,
2013-03-10 13:29:00,26.8,25.0,29.89,NW,309,13.0,27.0,93,0.00,,SKC,0.07,VWS V14.01,2013-03-10 18:29:00,
2013-03-10 13:33:00,26.8,25.0,29.89,NNW,342,17.0,21.0,93,0.00,,SKC,0.07,VWS V14.01,2013-03-10 18:33:00,
2013-03-10 13:37:00,26.8,25.0,29.89,NW,326,10.0,24.0,93,0.00,,SKC,0.07,VWS V14.01,2013-03-10 18:37:00,
2013-03-10 13:41:00,26.8,25.0,29.89,NNE,27,14.0,25.0,93,0.00,,SKC,0.07,VWS V14.01,2013-03-10 18:41:00,
2013-03-10 13:45:00,26.9,25.1,29.88,NNW,348,16.0,25.0,93,0.00,,SKC,0.07,VWS V14.01,2013-03-10 18:45:00,
2013-03-10 13:49:00,27.1,25.4,29.88,NNW,346,10.0,25.0,93,0.00,,SKC,0.07,VWS V14.01,2013-03-10 18:49:00,
2013-03-10 13:53:00,27.2,25.5,29.88,North,5,12.0,25.0,93,0.00,,SKC,0.07,VWS V14.01,2013-03-10 18:53:00,
2013-03-10 13:59:00,27.4,25.6,29.88,NW,309,15.0,25.0,93,0.00,,SKC,0.07,VWS V14.01,2013-03-10 18:59:00,
2013-03-10 14:01:00,27.4,25.6,29.88,West,281,13.0,26.0,93,0.00,,SKC,0.07,VWS V14.01,2013-03-10 19:01:00,
2013-03-10 14:09:00,27.5,25.8,29.87,NNE,18,18.0,27.0,93,0.00,,SKC,0.07,VWS V14.01,2013-03-10 19:09:00,
2013-03-10 14:13:00,27.3,25.5,29.88,North,360,12.0,31.0,93,0.00,,SKC,0.07,VWS V14.01,2013-03-10 19:13:00,
2013-03-10 14:17:00,27.2,25.5,29.87,North,9,21.0,31.0,93,0.00,,SKC,0.07,VWS V14.01,2013-03-10 19:17:00,
2013-03-10 14:21:00,27.2,25.5,29.88,NNW,332,12.0,31.0,93,0.00,,SKC,0.07,VWS V14.01,2013-03-10 19:21:00,
2013-03-10 14:25:00,27.3,25.5,29.88,NNW,341,17.0,31.0,93,0.00,,SKC,0.07,VWS V14.01,2013-03-10 19:25:00,
2013-03-10 14:29:00,27.1,25.4,29.87,NNW,338,13.0,32.0,93,0.00,,SKC,0.07,VWS V14.01,2013-03-10 19:29:00,
2013-03-10 14:38:00,26.5,24.8,29.87,NNE,20,14.0,31.0,93,0.00,,SKC,0.07,VWS V14.01,2013-03-10 19:38:00,
2013-03-10 14:42:00,26.5,24.8,29.87,WNW,296,18.0,31.0,93,0.00,,SKC,0.07,VWS V14.01,2013-03-10 19:42:00,
2013-03-10 14:46:00,26.5,24.8,29.87,North,360,11.0,33.0,93,0.00,,SKC,0.07,VWS V14.01,2013-03-10 19:46:00,
2013-03-10 14:50:00,26.7,25.0,29.87,North,349,11.0,33.0,93,0.00,,SKC,0.07,VWS V14.01,2013-03-10 19:50:00,
2013-03-10 14:58:00,26.8,25.0,29.87,NW,321,12.0,33.0,93,0.00,,SKC,0.07,VWS V14.01,2013-03-10 19:58:00,
2013-03-10 14:59:00,26.8,25.0,29.87,North,355,15.0,33.0,93,0.00,,SKC,0.07,VWS V14.01,2013-03-10 19:59:00,
2013-03-10 15:06:00,26.7,25.0,29.87,West,275,12.0,32.0,93,0.00,,SKC,0.07,VWS V14.01,2013-03-10 20:06:00,
2013-03-10 15:10:00,26.4,24.6,29.87,NNE,14,17.0,32.0,93,0.00,,SKC,0.07,VWS V14.01,2013-03-10 20:10:00,
2013-03-10 15:14:00,26.2,24.5,29.87,North,355,14.0,32.0,93,0.00,,SKC,0.07,VWS V14.01,2013-03-10 20:14:00,
2013-03-10 15:18:00,26.0,24.3,29.88,NW,323,25.0,32.0,93,0.00,,SKC,0.07,VWS V14.01,2013-03-10 20:18:00,
2013-03-10 15:22:00,25.7,24.0,29.88,West,281,18.0,32.0,93,0.00,,SKC,0.07,VWS V14.01,2013-03-10 20:22:00,
2013-03-10 15:29:00,25.6,23.9,29.88,NNW,330,21.0,32.0,93,0.00,,SKC,0.07,VWS V14.01,2013-03-10 20:29:00,
2013-03-10 15:30:00,25.6,23.9,29.88,NNW,332,17.0,30.0,93,0.00,,SKC,0.07,VWS V14.01,2013-03-10 20:30:00,
2013-03-10 15:34:00,25.5,23.8,29.89,NNE,15,13.0,30.0,93,0.00,,SKC,0.07,VWS V14.01,2013-03-10 20:34:00,
2013-03-10 15:38:00,25.3,23.6,29.89,NW,305,15.0,30.0,93,0.00,,SKC,0.07,VWS V14.01,2013-03-10 20:38:00,
2013-03-10 15:46:00,25.0,23.3,29.89,NW,323,21.0,30.0,93,0.00,,SKC,0.07,VWS V14.01,2013-03-10 20:46:00,
2013-03-10 15:50:00,24.8,23.1,29.89,NW,304,7.0,31.0,93,0.00,,SKC,0.07,VWS V14.01,2013-03-10 20:50:00,
2013-03-10 15:54:00,24.6,22.9,29.89,NNW,346,14.0,37.0,93,0.00,,SKC,0.07,VWS V14.01,2013-03-10 20:54:00,
2013-03-10 15:58:00,24.5,22.8,29.88,North,350,18.0,37.0,93,0.00,,SKC,0.07,VWS V14.01,2013-03-10 20:58:00,
2013-03-10 15:59:00,24.5,22.8,29.89,NNE,15,18.0,37.0,93,0.00,,SKC,0.07,VWS V14.01,2013-03-10 20:59:00,
2013-03-10 16:06:00,24.6,22.9,29.90,NW,312,15.0,28.0,93,0.00,,SKC,0.07,VWS V14.01,2013-03-10 21:06:00,
2013-03-10 16:10:00,24.6,22.9,29.90,NW,323,11.0,28.0,93,0.00,,SKC,0.07,VWS V14.01,2013-03-10 21:10:00,
2013-03-10 16:14:00,24.6,22.9,29.91,NW,311,12.0,28.0,93,0.00,,SKC,0.07,VWS V14.01,2013-03-10 21:14:00,
2013-03-10 16:18:00,24.5,22.8,29.91,NNW,344,14.0,28.0,93,0.00,,SKC,0.07,VWS V14.01,2013-03-10 21:18:00,
2013-03-10 16:22:00,24.3,22.6,29.91,NW,324,18.0,28.0,93,0.00,,SKC,0.07,VWS V14.01,2013-03-10 21:22:00,
2013-03-10 16:26:00,24.2,22.5,29.90,NW,306,27.0,28.0,93,0.00,,SKC,0.07,VWS V14.01,2013-03-10 21:26:00,
2013-03-10 16:29:00,24.1,22.4,29.91,WNW,300,11.0,30.0,93,0.00,,SKC,0.07,VWS V14.01,2013-03-10 21:29:00,
2013-03-10 16:34:00,24.0,22.3,29.91,NNW,341,13.0,28.0,93,0.00,,SKC,0.07,VWS V14.01,2013-03-10 21:34:00,
2013-03-10 16:38:00,24.0,22.3,29.91,NW,315,13.0,28.0,93,0.00,,SKC,0.07,VWS V14.01,2013-03-10 21:38:00,
2013-03-10 16:42:00,23.9,22.2,29.91,NW,319,21.0,28.0,93,0.00,,SKC,0.07,VWS V14.01,2013-03-10 21:42:00,
2013-03-10 16:46:00,23.9,22.2,29.92,NNE,28,12.0,28.0,93,0.00,,SKC,0.07,VWS V14.01,2013-03-10 21:46:00,
2013-03-10 16:51:00,23.9,22.2,29.92,WNW,291,12.0,28.0,93,0.00,,SKC,0.07,VWS V14.01,2013-03-10 21:51:00,
2013-03-10 16:55:00,23.8,22.1,29.92,NW,326,18.0,28.0,93,0.00,,SKC,0.07,VWS V14.01,2013-03-10 21:55:00,
2013-03-10 17:03:00,23.9,22.2,29.92,NNW,333,14.0,22.0,93,0.00,,SKC,0.07,VWS V14.01,2013-03-10 22:03:00,
2013-03-10 17:15:00,23.6,21.9,29.92,North,5,23.0,28.0,93,0.00,,SKC,0.07,VWS V14.01,2013-03-10 22:15:00,
2013-03-10 17:19:00,23.6,21.9,29.92,North,355,11.0,29.0,93,0.00,,SKC,0.07,VWS V14.01,2013-03-10 22:19:00,
2013-03-10 17:23:00,23.6,21.9,29.92,NNW,344,20.0,29.0,93,0.00,,SKC,0.07,VWS V14.01,2013-03-10 22:23:00,
2013-03-10 17:29:00,23.6,21.9,29.92,North,349,18.0,29.0,93,0.00,,SKC,0.07,VWS V14.01,2013-03-10 22:29:00,
2013-03-10 17:35:00,23.7,22.0,29.93,NW,323,12.0,28.0,93,0.00,,SKC,0.07,VWS V14.01,2013-03-10 22:35:00,
2013-03-10 17:39:00,23.6,21.9,29.93,North,355,19.0,30.0,93,0.00,,SKC,0.07,VWS V14.01,2013-03-10 22:39:00,
2013-03-10 17:47:00,23.6,21.9,29.93,NW,305,12.0,30.0,93,0.00,,SKC,0.07,VWS V14.01,2013-03-10 22:47:00,
2013-03-10 17:55:00,23.3,21.6,29.93,NNE,17,13.0,30.0,93,0.00,,SKC,0.07,VWS V14.01,2013-03-10 22:55:00,
2013-03-10 17:59:00,23.3,21.6,29.94,NW,315,12.0,30.0,93,0.00,,SKC,0.07,VWS V14.01,2013-03-10 22:59:00,
2013-03-10 18:07:00,23.0,21.0,29.93,NW,319,22.0,28.0,92,0.00,,SKC,0.07,VWS V14.01,2013-03-10 23:07:00,
2013-03-10 18:11:00,22.9,20.9,29.94,NW,320,15.0,29.0,92,0.00,,SKC,0.07,VWS V14.01,2013-03-10 23:11:00,
2013-03-10 18:15:00,22.8,20.8,29.94,WNW,296,13.0,29.0,92,0.00,,SKC,0.07,VWS V14.01,2013-03-10 23:15:00,
2013-03-10 18:20:00,22.7,20.7,29.93,NNW,330,21.0,29.0,92,0.00,,SKC,0.07,VWS V14.01,2013-03-10 23:20:00,
2013-03-10 18:24:00,22.7,20.7,29.94,NW,322,19.0,29.0,92,0.00,,SKC,0.07,VWS V14.01,2013-03-10 23:24:00,
2013-03-10 18:28:00,22.7,20.7,29.94,NW,319,13.0,29.0,92,0.00,,SKC,0.07,VWS V14.01,2013-03-10 23:28:00,
2013-03-10 18:29:00,22.7,20.7,29.94,NNW,327,13.0,29.0,92,0.00,,SKC,0.07,VWS V14.01,2013-03-10 23:29:00,
2013-03-10 18:36:00,22.6,20.6,29.94,NW,313,13.0,22.0,92,0.00,,SKC,0.07,VWS V14.01,2013-03-10 23:36:00,
2013-03-10 18:44:00,22.6,20.6,29.95,NW,315,8.0,22.0,92,0.00,,SKC,0.07,VWS V14.01,2013-03-10 23:44:00,
2013-03-10 18:48:00,22.6,20.9,29.95,NE,36,13.0,22.0,93,0.00,,SKC,0.07,VWS V14.01,2013-03-10 23:48:00,
2013-03-10 18:56:00,22.6,20.9,29.95,NW,325,16.0,22.0,93,0.00,,SKC,0.07,VWS V14.01,2013-03-10 23:56:00,
2013-03-10 18:59:00,22.6,20.9,29.96,NNW,331,15.0,25.0,93,0.00,,SKC,0.07,VWS V14.01,2013-03-10 23:59:00,
2013-03-10 19:04:00,22.6,20.9,29.96,NW,308,13.0,23.0,93,0.00,,SKC,0.07,VWS V14.01,2013-03-11 00:04:00,
2013-03-10 19:08:00,22.6,20.6,29.96,WNW,294,11.0,23.0,92,0.00,,SKC,0.07,VWS V14.01,2013-03-11 00:08:00,
2013-03-10 19:12:00,22.5,20.5,29.96,North,5,17.0,23.0,92,0.00,,SKC,0.07,VWS V14.01,2013-03-11 00:12:00,
2013-03-10 19:20:00,22.4,20.4,29.96,NW,323,17.0,27.0,92,0.00,,SKC,0.07,VWS V14.01,2013-03-11 00:20:00,
2013-03-10 19:28:00,22.3,20.3,29.96,NNW,329,20.0,27.0,92,0.00,,SKC,0.07,VWS V14.01,2013-03-11 00:28:00,
2013-03-10 19:29:00,22.2,20.2,29.96,NW,314,15.0,27.0,92,0.00,,SKC,0.07,VWS V14.01,2013-03-11 00:29:00,
2013-03-10 19:32:00,22.3,20.3,29.96,North,350,17.0,20.0,92,0.00,,SKC,0.07,VWS V14.01,2013-03-11 00:32:00,
2013-03-10 19:36:00,22.2,20.2,29.96,NW,310,12.0,24.0,92,0.00,,SKC,0.07,VWS V14.01,2013-03-11 00:36:00,
2013-03-10 19:40:00,22.2,20.2,29.96,NW,310,11.0,24.0,92,0.00,,SKC,0.07,VWS V14.01,2013-03-11 00:40:00,
2013-03-10 19:48:00,22.2,20.2,29.96,NW,323,12.0,24.0,92,0.00,,SKC,0.07,VWS V14.01,2013-03-11 00:48:00,
2013-03-10 19:56:00,22.2,20.5,29.97,NNE,21,12.0,24.0,93,0.00,,SKC,0.07,VWS V14.01,2013-03-11 00:56:00,
2013-03-10 20:00:00,22.2,20.5,29.96,NNW,339,16.0,24.0,93,0.00,,SKC,0.07,VWS V14.01,2013-03-11 01:00:00,
2013-03-10 20:04:00,22.2,20.5,29.97,NW,317,13.0,24.0,93,0.00,,SKC,0.07,VWS V14.01,2013-03-11 01:04:00,
2013-03-10 20:12:00,22.2,20.5,29.97,North,355,21.0,24.0,93,0.00,,SKC,0.07,VWS V14.01,2013-03-11 01:12:00,
2013-03-10 20:16:00,22.2,20.5,29.97,NNW,341,15.0,24.0,93,0.00,,SKC,0.07,VWS V14.01,2013-03-11 01:16:00,
2013-03-10 20:20:00,22.2,20.5,29.97,NW,311,22.0,24.0,93,0.00,,SKC,0.07,VWS V14.01,2013-03-11 01:20:00,
2013-03-10 20:28:00,22.2,20.5,29.98,NW,322,17.0,24.0,93,0.00,,SKC,0.07,VWS V14.01,2013-03-11 01:28:00,
2013-03-10 20:29:00,22.2,20.5,29.98,NNE,14,18.0,24.0,93,0.00,,SKC,0.07,VWS V14.01,2013-03-11 01:29:00,
2013-03-10 20:36:00,22.2,20.5,29.98,WNW,300,12.0,25.0,93,0.00,,SKC,0.07,VWS V14.01,2013-03-11 01:36:00,
2013-03-10 20:40:00,22.2,20.5,29.98,NNW,339,11.0,25.0,93,0.00,,SKC,0.07,VWS V14.01,2013-03-11 01:40:00,
2013-03-10 20:49:00,22.2,20.5,29.98,NW,324,16.0,25.0,93,0.00,,SKC,0.07,VWS V14.01,2013-03-11 01:49:00,
2013-03-10 20:59:00,22.2,20.5,29.98,NW,306,10.0,25.0,93,0.00,,SKC,0.07,VWS V14.01,2013-03-11 01:59:00,
2013-03-10 21:01:00,22.2,20.5,29.98,WNW,300,15.0,21.0,93,0.00,,SKC,0.07,VWS V14.01,2013-03-11 02:01:00,
2013-03-10 21:05:00,22.2,20.5,29.98,WNW,297,13.0,22.0,93,0.00,,SKC,0.07,VWS V14.01,2013-03-11 02:05:00,
2013-03-10 21:09:00,22.2,20.5,29.98,WNW,286,16.0,25.0,93,0.00,,SKC,0.07,VWS V14.01,2013-03-11 02:09:00,
2013-03-10 21:13:00,22.3,20.6,29.98,NNW,335,11.0,25.0,93,0.00,,SKC,0.07,VWS V14.01,2013-03-11 02:13:00,
2013-03-10 21:17:00,22.3,20.3,29.98,NNW,333,11.0,25.0,92,0.00,,SKC,0.07,VWS V14.01,2013-03-11 02:17:00,
2013-03-10 21:21:00,22.3,20.3,29.98,NW,325,13.0,25.0,92,0.00,,SKC,0.07,VWS V14.01,2013-03-11 02:21:00,
2013-03-10 21:25:00,22.3,20.6,29.98,North,9,16.0,25.0,93,0.00,,SKC,0.07,VWS V14.01,2013-03-11 02:25:00,
2013-03-10 21:29:00,22.3,20.6,29.98,NNW,331,10.0,25.0,93,0.00,,SKC,0.07,VWS V14.01,2013-03-11 02:29:00,
2013-03-10 21:33:00,22.3,20.6,29.98,NNW,348,16.0,26.0,93,0.00,,SKC,0.07,VWS V14.01,2013-03-11 02:33:00,
2013-03-10 21:37:00,22.3,20.6,29.99,NW,309,15.0,26.0,93,0.00,,SKC,0.07,VWS V14.01,2013-03-11 02:37:00,
2013-03-10 21:45:00,22.4,20.4,29.98,NW,323,12.0,26.0,92,0.00,,SKC,0.07,VWS V14.01,2013-03-11 02:45:00,
2013-03-10 21:49:00,22.4,20.4,29.98,NW,311,14.0,26.0,92,0.00,,SKC,0.07,VWS V14.01,2013-03-11 02:49:00,
2013-03-10 21:53:00,22.4,20.4,29.98,WNW,288,12.0,26.0,92,0.00,,SKC,0.07,VWS V14.01,2013-03-11 02:53:00,
2013-03-10 21:57:00,22.4,20.7,29.99,North,9,13.0,26.0,93,0.00,,SKC,0.07,VWS V14.01,2013-03-11 02:57:00,
2013-03-10 21:59:00,22.4,20.7,29.99,NW,304,17.0,26.0,93,0.00,,SKC,0.07,VWS V14.01,2013-03-11 02:59:00,
2013-03-10 22:01:00,22.4,20.7,29.99,North,355,12.0,19.0,93,0.00,,SKC,0.07,VWS V14.01,2013-03-11 03:01:00,
2013-03-10 22:05:00,22.4,20.7,29.99,NNW,344,12.0,20.0,93,0.00,,SKC,0.07,VWS V14.01,2013-03-11 03:05:00,
2013-03-10 22:09:00,22.4,20.7,29.99,NW,319,17.0,21.0,93,0.00,,SKC,0.07,VWS V14.01,2013-03-11 03:09:00,
2013-03-10 22:17:00,22.4,20.4,29.99,NW,315,15.0,21.0,92,0.00,,SKC,0.07,VWS V14.01,2013-03-11 03:17:00,
2013-03-10 22:25:00,22.5,20.8,29.99,WNW,296,11.0,22.0,93,0.00,,SKC,0.07,VWS V14.01,2013-03-11 03:25:00,
2013-03-10 22:29:00,22.5,20.8,29.99,North,9,14.0,14.0,93,0.00,,SKC,0.07,VWS V14.01,2013-03-11 03:29:00,
2013-03-10 22:33:00,22.5,20.8,29.99,NE,45,9.0,21.0,93,0.00,,SKC,0.07,VWS V14.01,2013-03-11 03:33:00,
2013-03-10 22:41:00,22.6,20.9,29.99,NW,323,17.0,23.0,93,0.00,,SKC,0.07,VWS V14.01,2013-03-11 03:41:00,
2013-03-10 22:45:00,22.6,20.9,30.00,WNW,301,10.0,23.0,93,0.00,,SKC,0.07,VWS V14.01,2013-03-11 03:45:00,
2013-03-10 22:54:00,22.6,20.9,30.00,NNW,344,13.0,23.0,93,0.00,,SKC,0.07,VWS V14.01,2013-03-11 03:54:00,
2013-03-10 22:58:00,22.5,20.8,30.00,NW,315,11.0,23.0,93,0.00,,SKC,0.07,VWS V14.01,2013-03-11 03:58:00,
2013-03-10 23:02:00,22.6,20.9,30.00,NNW,329,16.0,18.0,93,0.00,,SKC,0.07,VWS V14.01,2013-03-11 04:02:00,
2013-03-10 23:06:00,22.6,20.9,30.00,North,349,13.0,21.0,93,0.00,,SKC,0.07,VWS V14.01,2013-03-11 04:06:00,
2013-03-10 23:14:00,22.6,20.9,30.00,North,360,11.0,23.0,93,0.00,,SKC,0.07,VWS V14.01,2013-03-11 04:14:00,
2013-03-10 23:18:00,22.5,20.8,30.00,NW,318,21.0,23.0,93,0.00,,SKC,0.07,VWS V14.01,2013-03-11 04:18:00,
2013-03-10 23:26:00,22.5,20.8,30.00,NNW,331,8.0,23.0,93,0.00,,SKC,0.07,VWS V14.01,2013-03-11 04:26:00,
2013-03-10 23:29:00,22.5,20.8,30.00,WNW,284,10.0,23.0,93,0.00,,SKC,0.07,VWS V14.01,2013-03-11 04:29:00,
2013-03-10 23:38:00,22.4,20.7,30.00,NW,307,14.0,21.0,93,0.00,,SKC,0.07,VWS V14.01,2013-03-11 04:38:00,
2013-03-10 23:50:00,22.4,20.7,29.99,NW,324,16.0,22.0,93,0.00,,SKC,0.07,VWS V14.01,2013-03-11 04:50:00,
2013-03-10 23:58:00,22.4,20.7,29.99,NW,321,10.0,22.0,93,0.00,,SKC,0.07,VWS V14.01,2013-03-11 04:58:00,
2013-03-10 23:59:00,22.3,20.6,29.99,North,5,13.0,22.0,93,0.00,,SKC,0.00,VWS V14.01,2013-03-11 04:59:00,